HAF weather

Half Moon Bay Airport
Half Moon Bay, California, United States

Public forecast

Using degrees Fahrenheit for public forecast. Weather courtesy of forecast.io.

Current aviation weather report (METAR) for Half Moon Bay Airport

Retrieved 2019/10/17 02:40 UTC (0 seconds ago):

KHAF 170240Z AUTO 00000KT 10SM BKN003 13/11 A2993 RMK AO2

Closest aviation forecast (TAF) to Half Moon Bay Airport

Closest forecast is San Francisco International Airport, 8.7 nm (16.2 km) NE. Retrieved 2019-10-17 00:30 UTC (2 hours ago):

TAF KSFO 162328Z 1700/1806 27016KT P6SM BKN200 FM170300 27011KT P6SM SCT020 SCT050 FM170600 25009KT P6SM -SHRA BKN014 BKN050 FM171100 29013KT P6SM BKN014 FM171800 29014KT P6SM SCT015 FM172100 29018G25KT P6SM FEW015 FM180400 29012KT P6SM FEW010